Time,TemperatureF,DewpointF,PressureIn,WindDirection,WindDirectionDegrees,WindSpeedMPH,WindSpeedGustMPH,Humidity,HourlyPrecipIn,Conditions,Clouds,dailyrainin,SoftwareType,DateUTC
2013-07-18 00:02:00,74.0,68.0,30.04,SW,225,0.0,0.0,83,0.00,,,0.00,,2013-07-18 04:02:00,
2013-07-18 00:12:00,74.0,69.0,30.05,SW,225,0.0,0.0,84,0.00,,,0.00,,2013-07-18 04:12:00,
2013-07-18 00:22:00,74.0,69.0,30.05,SW,225,0.0,0.0,84,0.00,,,0.00,,2013-07-18 04:22:00,
2013-07-18 00:32:00,74.0,69.0,30.04,SW,225,0.0,0.0,84,0.00,,,0.00,,2013-07-18 04:32:00,
2013-07-18 00:43:00,74.0,69.0,30.04,West,270,0.0,0.0,84,0.00,,,0.00,,2013-07-18 04:43:00,
2013-07-18 00:52:00,74.0,68.0,30.04,WSW,248,0.0,0.0,83,0.00,,,0.00,,2013-07-18 04:52:00,
2013-07-18 01:02:00,74.0,68.0,30.04,WSW,248,0.0,0.0,83,0.00,,,0.00,,2013-07-18 05:02:00,
2013-07-18 01:11:00,74.0,69.0,30.04,WSW,248,0.0,0.0,84,0.00,,,0.00,,2013-07-18 05:11:00,
2013-07-18 01:22:00,74.0,69.0,30.04,SW,225,0.0,0.0,84,0.00,,,0.00,,2013-07-18 05:22:00,
2013-07-18 01:42:00,74.0,69.0,30.03,SSW,203,0.0,0.0,84,0.00,,,0.00,,2013-07-18 05:42:00,
2013-07-18 01:52:00,74.0,69.0,30.03,WSW,248,0.0,0.0,84,0.00,,,0.00,,2013-07-18 05:52:00,
2013-07-18 02:01:00,74.0,68.0,30.02,WSW,248,0.0,0.0,83,0.00,,,0.00,,2013-07-18 06:01:00,
2013-07-18 02:12:00,74.0,68.0,30.02,WSW,248,0.0,0.0,83,0.00,,,0.00,,2013-07-18 06:12:00,
2013-07-18 02:22:00,74.0,68.0,30.02,West,270,0.0,0.0,83,0.00,,,0.00,,2013-07-18 06:22:00,
2013-07-18 02:32:00,74.0,68.0,30.02,West,270,0.0,0.0,83,0.00,,,0.00,,2013-07-18 06:32:00,
2013-07-18 02:43:00,74.0,68.0,30.02,West,270,0.0,0.0,83,0.00,,,0.00,,2013-07-18 06:43:00,
2013-07-18 02:52:00,74.0,68.0,30.02,West,270,0.0,0.0,83,0.00,,,0.00,,2013-07-18 06:52:00,
2013-07-18 03:12:00,74.0,69.0,30.01,West,270,0.0,0.0,84,0.00,,,0.00,,2013-07-18 07:12:00,
2013-07-18 03:32:00,74.0,69.0,30.01,WNW,293,0.0,0.0,84,0.00,,,0.00,,2013-07-18 07:32:00,
2013-07-18 03:42:00,74.0,69.0,30.00,West,270,0.0,0.0,84,0.00,,,0.00,,2013-07-18 07:42:00,
2013-07-18 03:52:00,74.0,69.0,30.01,West,270,0.0,0.0,84,0.00,,,0.00,,2013-07-18 07:52:00,
2013-07-18 04:01:00,74.0,69.0,30.00,West,270,0.0,0.0,84,0.00,,,0.00,,2013-07-18 08:01:00,
2013-07-18 04:11:00,74.0,69.0,30.00,West,270,0.0,0.0,84,0.00,,,0.00,,2013-07-18 08:11:00,
2013-07-18 04:21:00,74.0,69.0,29.99,West,270,0.0,0.0,84,0.00,,,0.00,,2013-07-18 08:21:00,
2013-07-18 04:32:00,74.0,69.0,29.99,NW,315,0.0,0.0,84,0.00,,,0.00,,2013-07-18 08:32:00,
2013-07-18 04:42:00,74.0,69.0,29.99,WSW,248,0.0,0.0,84,0.00,,,0.00,,2013-07-18 08:42:00,
2013-07-18 04:51:00,73.0,68.0,29.99,West,270,0.0,0.0,84,0.00,,,0.00,,2013-07-18 08:51:00,
2013-07-18 05:11:00,73.0,68.0,30.00,WNW,293,0.0,0.0,84,0.00,,,0.00,,2013-07-18 09:11:00,
2013-07-18 05:21:00,73.0,68.0,30.00,WNW,293,0.0,0.0,84,0.00,,,0.00,,2013-07-18 09:21:00,
2013-07-18 05:42:00,73.0,68.0,30.00,SSE,158,0.0,0.0,84,0.00,,,0.00,,2013-07-18 09:42:00,
2013-07-18 05:51:00,73.0,68.0,30.00,SSE,158,0.0,0.0,84,0.00,,,0.00,,2013-07-18 09:51:00,
2013-07-18 06:01:00,73.0,68.0,30.00,SSE,158,0.0,0.0,84,0.00,,,0.00,,2013-07-18 10:01:00,
2013-07-18 06:11:00,73.0,68.0,30.00,SSE,158,0.0,0.0,84,0.00,,,0.00,,2013-07-18 10:11:00,
2013-07-18 06:22:00,73.0,68.0,30.00,SSE,158,0.0,0.0,84,0.00,,,0.00,,2013-07-18 10:22:00,
2013-07-18 06:32:00,73.0,68.0,30.01,SSE,158,0.0,0.0,85,0.00,,,0.00,,2013-07-18 10:32:00,
2013-07-18 06:43:00,73.0,68.0,30.01,SSE,158,0.0,0.0,85,0.00,,,0.00,,2013-07-18 10:43:00,
2013-07-18 06:52:00,73.0,68.0,30.01,SSE,158,0.0,0.0,85,0.00,,,0.00,,2013-07-18 10:52:00,
2013-07-18 07:11:00,74.0,69.0,30.01,SSE,158,0.0,0.0,85,0.00,,,0.00,,2013-07-18 11:11:00,
2013-07-18 07:52:00,76.0,71.0,30.01,WSW,248,0.0,0.0,84,0.00,,,0.00,,2013-07-18 11:52:00,
2013-07-18 08:02:00,76.0,71.0,30.02,WSW,248,0.0,0.0,84,0.00,,,0.00,,2013-07-18 12:02:00,
2013-07-18 08:11:00,77.0,71.0,30.02,WSW,248,0.0,0.0,83,0.00,,,0.00,,2013-07-18 12:11:00,
2013-07-18 08:22:00,78.0,72.0,30.02,WSW,248,0.0,0.0,83,0.00,,,0.00,,2013-07-18 12:22:00,
2013-07-18 08:33:00,79.0,73.0,30.02,WSW,248,0.0,0.0,82,0.00,,,0.00,,2013-07-18 12:33:00,
2013-07-18 08:42:00,80.0,74.0,30.02,WNW,293,0.0,0.0,81,0.00,,,0.00,,2013-07-18 12:42:00,
2013-07-18 08:52:00,80.0,73.0,30.02,NNW,338,0.0,0.0,80,0.00,,,0.00,,2013-07-18 12:52:00,
2013-07-18 09:01:00,80.0,73.0,30.02,NNW,338,0.0,0.0,80,0.00,,,0.00,,2013-07-18 13:01:00,
2013-07-18 09:22:00,82.0,74.0,30.02,NE,45,0.0,0.0,78,0.00,,,0.00,,2013-07-18 13:22:00,
2013-07-18 09:43:00,83.0,75.0,30.01,NE,45,0.0,0.0,77,0.00,,,0.00,,2013-07-18 13:43:00,
2013-07-18 10:12:00,85.0,76.0,30.02,NNE,23,0.0,3.0,74,0.00,,,0.00,,2013-07-18 14:12:00,
2013-07-18 10:43:00,87.0,76.0,30.02,NE,45,0.0,0.0,70,0.00,,,0.00,,2013-07-18 14:43:00,
2013-07-18 11:01:00,88.0,77.0,30.01,NE,45,0.0,0.0,69,0.00,,,0.00,,2013-07-18 15:01:00,
2013-07-18 11:11:00,88.0,76.0,30.01,East,90,0.0,0.0,67,0.00,,,0.00,,2013-07-18 15:11:00,
2013-07-18 11:43:00,90.0,77.0,30.02,NNW,338,0.0,2.0,65,0.00,,,0.00,,2013-07-18 15:43:00,
2013-07-18 11:53:00,90.0,76.0,30.01,NNE,23,0.0,0.0,64,0.00,,,0.00,,2013-07-18 15:53:00,
2013-07-18 12:32:00,93.0,78.0,30.01,ENE,68,2.0,2.0,62,0.00,,,0.00,,2013-07-18 16:32:00,
2013-07-18 12:42:00,94.0,78.0,30.01,ENE,68,0.0,0.0,60,0.00,,,0.00,,2013-07-18 16:42:00,
2013-07-18 12:52:00,95.0,78.0,30.00,NNW,338,0.0,0.0,58,0.00,,,0.00,,2013-07-18 16:52:00,
2013-07-18 16:22:00,99.0,74.0,29.97,North,0,0.0,0.0,45,0.00,,,0.00,,2013-07-18 20:22:00,
2013-07-18 16:32:00,96.0,73.0,29.96,North,0,0.0,0.0,48,0.00,,,0.00,,2013-07-18 20:32:00,
2013-07-18 16:43:00,95.0,73.0,29.96,WSW,248,0.0,0.0,50,0.00,,,0.00,,2013-07-18 20:43:00,
2013-07-18 16:52:00,95.0,73.0,29.96,WSW,248,0.0,0.0,50,0.00,,,0.00,,2013-07-18 20:52:00,
2013-07-18 17:11:00,94.0,74.0,29.95,WSW,248,0.0,0.0,52,0.00,,,0.00,,2013-07-18 21:11:00,
2013-07-18 17:22:00,95.0,73.0,29.95,WSW,248,0.0,0.0,50,0.00,,,0.00,,2013-07-18 21:22:00,
2013-07-18 17:43:00,92.0,73.0,29.95,WSW,248,0.0,0.0,54,0.00,,,0.00,,2013-07-18 21:43:00,
2013-07-18 17:52:00,91.0,73.0,29.96,WSW,248,0.0,0.0,56,0.00,,,0.00,,2013-07-18 21:52:00,
2013-07-18 18:01:00,90.0,73.0,29.96,WNW,293,0.0,0.0,57,0.00,,,0.00,,2013-07-18 22:01:00,
2013-07-18 18:11:00,89.0,73.0,29.96,WNW,293,0.0,0.0,59,0.00,,,0.00,,2013-07-18 22:11:00,
2013-07-18 18:32:00,88.0,73.0,29.96,SW,225,0.0,0.0,61,0.00,,,0.00,,2013-07-18 22:32:00,
2013-07-18 19:02:00,88.0,75.0,29.96,SE,135,0.0,0.0,66,0.00,,,0.00,,2013-07-18 23:02:00,
2013-07-18 19:11:00,87.0,75.0,29.96,South,180,0.0,0.0,68,0.00,,,0.00,,2013-07-18 23:11:00,
2013-07-18 19:32:00,87.0,76.0,29.96,ESE,113,0.0,2.0,69,0.00,,,0.00,,2013-07-18 23:32:00,
2013-07-18 19:52:00,85.0,74.0,29.96,South,180,0.0,0.0,70,0.00,,,0.00,,2013-07-18 23:52:00,
2013-07-18 20:01:00,84.0,73.0,29.96,South,180,0.0,0.0,70,0.00,,,0.00,,2013-07-19 00:01:00,
2013-07-18 20:11:00,84.0,73.0,29.96,South,180,0.0,0.0,70,0.00,,,0.00,,2013-07-19 00:11:00,
2013-07-18 20:32:00,83.0,73.0,29.97,SSW,203,0.0,0.0,71,0.00,,,0.00,,2013-07-19 00:32:00,
2013-07-18 20:43:00,82.0,72.0,29.97,SSW,203,0.0,0.0,72,0.00,,,0.00,,2013-07-19 00:43:00,
2013-07-18 20:52:00,82.0,72.0,29.97,SSW,203,0.0,0.0,73,0.00,,,0.00,,2013-07-19 00:52:00,
2013-07-18 21:01:00,82.0,72.0,29.97,SSW,203,0.0,0.0,73,0.00,,,0.00,,2013-07-19 01:01:00,
2013-07-18 21:22:00,81.0,72.0,29.97,SW,225,0.0,5.0,74,0.00,,,0.00,,2013-07-19 01:22:00,
2013-07-18 21:32:00,81.0,72.0,29.96,SSE,158,0.0,0.0,74,0.00,,,0.00,,2013-07-19 01:32:00,
2013-07-18 21:42:00,81.0,72.0,29.97,SE,135,0.0,3.0,75,0.00,,,0.00,,2013-07-19 01:42:00,
2013-07-18 22:02:00,81.0,73.0,29.98,SSE,158,0.0,2.0,76,0.00,,,0.00,,2013-07-19 02:02:00,
2013-07-18 22:43:00,80.0,72.0,29.98,SSE,158,0.0,0.0,78,0.00,,,0.00,,2013-07-19 02:43:00,
2013-07-18 23:01:00,80.0,72.0,29.97,SSE,158,0.0,0.0,78,0.00,,,0.00,,2013-07-19 03:01:00,
2013-07-18 23:11:00,80.0,73.0,29.97,SSE,158,0.0,4.0,79,0.00,,,0.00,,2013-07-19 03:11:00,
2013-07-18 23:32:00,79.0,72.0,29.98,SE,135,2.0,2.0,79,0.00,,,0.00,,2013-07-19 03:32:00,
2013-07-18 23:43:00,79.0,72.0,29.97,SE,135,0.0,2.0,79,0.00,,,0.00,,2013-07-19 03:43:00,